createdAt,value
2023-05-15T00:01:38.047Z,16.14
2023-05-15T00:04:04.345Z,16.15
2023-05-15T00:06:30.761Z,16.05
2023-05-15T00:08:56.915Z,16.12
2023-05-15T00:11:23.284Z,16.02
2023-05-15T00:13:50.276Z,16.13
2023-05-15T00:16:16.714Z,16.15
2023-05-15T00:18:42.871Z,16.22
2023-05-15T00:21:09.343Z,16.23
2023-05-15T00:23:35.742Z,16.21
2023-05-15T00:26:02.237Z,16.23
2023-05-15T00:28:28.490Z,16.26
2023-05-15T00:31:08.162Z,16.27
2023-05-15T00:33:34.312Z,16.17
2023-05-15T00:36:00.703Z,16.06
2023-05-15T00:38:26.870Z,16.02
2023-05-15T00:40:54.348Z,15.98
2023-05-15T00:43:21.241Z,15.96
2023-05-15T00:45:47.964Z,16.04
2023-05-15T00:48:15.793Z,16.07
2023-05-15T00:50:43.164Z,15.97
2023-05-15T00:53:10.281Z,15.96
2023-05-15T00:55:38.514Z,15.91
2023-05-15T00:58:05.351Z,15.88
2023-05-15T01:00:32.829Z,15.86
2023-05-15T01:02:59.241Z,15.89
2023-05-15T01:05:27.732Z,15.90
2023-05-15T01:08:07.580Z,15.92
2023-05-15T01:10:35.114Z,15.94
2023-05-15T01:13:01.888Z,15.89
2023-05-15T01:15:28.212Z,15.88
2023-05-15T01:17:54.415Z,15.88
2023-05-15T01:20:22.168Z,15.85
2023-05-15T01:23:07.497Z,15.79
2023-05-15T01:25:47.363Z,15.80
2023-05-15T01:28:29.935Z,15.84
2023-05-15T01:31:00.544Z,15.81
2023-05-15T01:33:32.740Z,15.75
2023-05-15T01:36:07.339Z,15.75
2023-05-15T01:38:39.355Z,15.77
2023-05-15T01:41:15.125Z,15.81
2023-05-15T01:43:44.978Z,15.80
2023-05-15T01:46:14.920Z,15.87
2023-05-15T01:48:44.865Z,15.83
2023-05-15T01:51:14.125Z,15.85
2023-05-15T01:53:42.663Z,15.69
2023-05-15T01:56:11.800Z,15.62
2023-05-15T01:58:40.312Z,15.65
2023-05-15T02:01:10.047Z,15.70
2023-05-15T02:03:36.905Z,15.57
2023-05-15T02:06:05.299Z,15.53
2023-05-15T02:08:32.247Z,15.52
2023-05-15T02:11:00.787Z,15.51
2023-05-15T02:13:28.317Z,15.49
2023-05-15T02:15:54.972Z,15.57
2023-05-15T02:18:21.413Z,15.61
2023-05-15T02:20:47.942Z,15.71
2023-05-15T02:23:14.876Z,15.65
2023-05-15T02:25:47.339Z,15.69
2023-05-15T02:28:26.309Z,15.67
2023-05-15T02:30:57.267Z,15.68
2023-05-15T02:33:34.829Z,15.77
2023-05-15T02:36:10.508Z,15.81
2023-05-15T02:38:51.843Z,15.79
2023-05-15T02:41:20.298Z,15.90
2023-05-15T02:43:49.705Z,15.90
2023-05-15T02:46:17.241Z,15.94
2023-05-15T02:48:43.616Z,15.91
2023-05-15T02:51:10.249Z,15.80
2023-05-15T02:53:41.067Z,15.74
2023-05-15T02:56:08.013Z,15.84
2023-05-15T02:58:34.753Z,15.84
2023-05-15T03:01:01.271Z,15.84
2023-05-15T03:03:27.415Z,15.75
2023-05-15T03:05:53.883Z,15.72
2023-05-15T03:08:20.521Z,15.52
2023-05-15T03:10:47.032Z,15.63
2023-05-15T03:13:13.218Z,15.64
2023-05-15T03:15:39.621Z,15.64
2023-05-15T03:18:06.112Z,15.60
2023-05-15T03:20:32.951Z,15.63
2023-05-15T03:22:59.229Z,15.66
2023-05-15T03:25:25.993Z,15.63
2023-05-15T03:27:52.863Z,15.60
2023-05-15T03:30:19.277Z,15.55
2023-05-15T03:32:45.627Z,15.53
2023-05-15T03:35:12.181Z,15.56
2023-05-15T03:37:38.349Z,15.45
2023-05-15T03:40:06.677Z,15.41
2023-05-15T03:42:32.823Z,15.31
2023-05-15T03:44:59.428Z,15.23
2023-05-15T03:47:25.579Z,15.23
2023-05-15T03:49:52.567Z,15.27
2023-05-15T03:52:18.749Z,15.17
2023-05-15T03:54:45.160Z,15.12
2023-05-15T03:57:11.915Z,15.10
2023-05-15T03:59:38.357Z,15.11
2023-05-15T04:02:05.776Z,15.03
2023-05-15T04:04:32.697Z,15.07
2023-05-15T04:06:59.527Z,15.04
2023-05-15T04:09:25.900Z,15.04
2023-05-15T04:11:52.022Z,15.09
2023-05-15T04:14:18.405Z,15.08
2023-05-15T04:16:44.607Z,15.03
2023-05-15T04:19:11.119Z,15.07
2023-05-15T04:21:37.224Z,15.10
2023-05-15T04:24:03.890Z,15.20
2023-05-15T04:26:30.816Z,15.15
2023-05-15T04:29:04.166Z,15.09
2023-05-15T04:31:31.597Z,15.17
2023-05-15T04:33:58.225Z,15.20
2023-05-15T04:36:24.412Z,15.19
2023-05-15T04:38:51.035Z,15.16
2023-05-15T04:41:17.870Z,15.21
2023-05-15T04:43:44.238Z,15.15
2023-05-15T04:46:10.394Z,15.16
2023-05-15T04:48:36.859Z,15.23
2023-05-15T04:51:03.215Z,15.35
2023-05-15T04:53:29.657Z,15.39
2023-05-15T04:55:55.775Z,15.45
2023-05-15T04:58:22.418Z,15.39
2023-05-15T05:00:48.795Z,15.34
2023-05-15T05:03:15.391Z,15.31
2023-05-15T05:05:41.841Z,15.29
2023-05-15T05:08:08.488Z,15.34
2023-05-15T05:10:34.731Z,15.38
2023-05-15T05:13:01.166Z,15.36
2023-05-15T05:15:27.791Z,15.44
2023-05-15T05:17:54.452Z,15.30
2023-05-15T05:20:20.813Z,15.28
2023-05-15T05:22:47.359Z,15.26
2023-05-15T05:25:13.684Z,15.26
2023-05-15T05:27:40.163Z,15.19
2023-05-15T05:30:08.232Z,15.32
2023-05-15T05:32:34.743Z,15.35
2023-05-15T05:35:01.083Z,15.22
2023-05-15T05:37:27.547Z,15.25
2023-05-15T05:39:54.133Z,15.33
2023-05-15T05:42:20.721Z,15.24
2023-05-15T05:44:47.012Z,15.32
2023-05-15T05:47:16.227Z,15.48
2023-05-15T05:49:42.880Z,15.43
2023-05-15T05:52:09.410Z,15.38
2023-05-15T05:54:35.793Z,15.40
2023-05-15T05:57:02.263Z,15.41
2023-05-15T05:59:29.199Z,15.43
2023-05-15T06:01:56.280Z,15.52
2023-05-15T06:04:22.464Z,15.64
2023-05-15T06:06:49.365Z,15.79
2023-05-15T06:09:16.077Z,15.83
2023-05-15T06:11:43.052Z,15.78
2023-05-15T06:14:09.561Z,15.76
2023-05-15T06:16:36.314Z,15.72
2023-05-15T06:19:02.766Z,15.74
2023-05-15T06:21:29.341Z,15.52
2023-05-15T06:23:55.501Z,15.56
2023-05-15T06:26:22.004Z,15.55
2023-05-15T06:28:48.083Z,15.55
2023-05-15T06:31:14.885Z,15.56
2023-05-15T06:33:40.975Z,15.58
2023-05-15T06:36:08.404Z,15.63
2023-05-15T06:38:35.505Z,15.54
2023-05-15T06:41:02.123Z,15.56
2023-05-15T06:43:28.187Z,15.47
2023-05-15T06:45:55.132Z,15.41
2023-05-15T06:48:21.613Z,15.38
2023-05-15T06:50:48.342Z,15.40
2023-05-15T06:53:14.846Z,15.05
2023-05-15T06:55:41.377Z,15.31
2023-05-15T06:58:07.802Z,15.25
2023-05-15T07:00:34.256Z,15.08
2023-05-15T07:03:00.494Z,14.98
2023-05-15T07:05:27.464Z,14.84
2023-05-15T07:07:54.187Z,14.86
2023-05-15T07:10:20.648Z,14.84
2023-05-15T07:12:46.857Z,14.80
2023-05-15T07:15:13.301Z,14.83
2023-05-15T07:17:39.646Z,14.74
2023-05-15T07:20:07.343Z,14.64
2023-05-15T07:22:38.794Z,14.71
2023-05-15T07:25:11.354Z,14.70
2023-05-15T07:27:37.430Z,14.71
2023-05-15T07:30:04.280Z,14.82
2023-05-15T07:32:30.388Z,14.75
2023-05-15T07:34:56.837Z,14.67
2023-05-15T07:37:23.098Z,14.70
2023-05-15T07:39:49.607Z,14.73
2023-05-15T07:42:15.800Z,14.59
2023-05-15T07:44:44.642Z,14.61
2023-05-15T07:47:11.586Z,14.55
2023-05-15T07:49:37.892Z,14.48
2023-05-15T07:52:04.237Z,14.38
2023-05-15T07:54:31.409Z,14.51
2023-05-15T07:56:57.902Z,14.55
2023-05-15T07:59:24.362Z,14.50
2023-05-15T08:01:50.512Z,14.54
2023-05-15T08:04:16.906Z,14.51
2023-05-15T08:06:44.487Z,14.53
2023-05-15T08:09:12.057Z,14.48
2023-05-15T08:11:38.201Z,14.29
2023-05-15T08:14:04.674Z,14.25
2023-05-15T08:16:30.899Z,14.32
2023-05-15T08:19:00.798Z,14.36
2023-05-15T08:21:27.181Z,14.21
2023-05-15T08:23:53.954Z,14.27
2023-05-15T08:26:20.400Z,14.23
2023-05-15T08:28:46.888Z,14.27
2023-05-15T08:31:13.010Z,14.39
2023-05-15T08:33:39.590Z,14.24
2023-05-15T08:36:07.260Z,14.30
2023-05-15T08:38:33.990Z,14.34
2023-05-15T08:41:10.599Z,14.35
2023-05-15T08:43:40.728Z,14.35
2023-05-15T08:46:08.650Z,14.43
2023-05-15T08:48:38.399Z,14.55
2023-05-15T08:51:09.618Z,14.59
2023-05-15T08:53:36.540Z,14.59
2023-05-15T08:56:03.121Z,14.42
2023-05-15T08:58:30.758Z,14.52
2023-05-15T09:00:57.032Z,14.40
2023-05-15T09:03:23.766Z,14.37
2023-05-15T09:05:52.469Z,14.51
2023-05-15T09:08:21.760Z,14.42
2023-05-15T09:10:48.436Z,14.32
2023-05-15T09:13:15.027Z,14.33
2023-05-15T09:15:41.850Z,14.24
2023-05-15T09:18:09.116Z,14.30
2023-05-15T09:20:37.373Z,14.38
2023-05-15T09:23:05.558Z,14.33
2023-05-15T09:25:38.804Z,14.52
2023-05-15T09:28:08.301Z,14.48
2023-05-15T09:30:37.816Z,14.58
2023-05-15T09:33:04.490Z,14.71
2023-05-15T09:35:32.312Z,14.71
2023-05-15T09:38:00.337Z,14.72
2023-05-15T09:40:31.340Z,14.78
2023-05-15T09:42:58.932Z,14.68
2023-05-15T09:45:29.108Z,14.90
2023-05-15T09:47:58.646Z,14.70
2023-05-15T09:50:33.125Z,14.80
2023-05-15T09:52:59.801Z,14.73
2023-05-15T09:55:27.193Z,14.86
2023-05-15T09:58:11.199Z,14.91
2023-05-15T10:00:47.895Z,14.86
2023-05-15T10:03:20.073Z,15.02
2023-05-15T10:05:46.461Z,14.90
2023-05-15T10:08:14.916Z,14.90
2023-05-15T10:10:41.390Z,14.92
2023-05-15T10:13:09.309Z,14.87
2023-05-15T10:15:35.777Z,14.72
2023-05-15T10:18:03.874Z,14.83
2023-05-15T10:20:31.315Z,14.80
2023-05-15T10:22:59.254Z,14.73
2023-05-15T10:25:52.862Z,15.01
2023-05-15T10:28:20.409Z,14.99
2023-05-15T10:30:47.563Z,14.64
2023-05-15T10:33:15.294Z,14.70
2023-05-15T10:35:42.550Z,14.43
2023-05-15T10:38:10.781Z,14.52
2023-05-15T10:40:38.193Z,14.42
2023-05-15T10:43:05.526Z,14.61
2023-05-15T10:45:32.774Z,14.58
2023-05-15T10:48:01.489Z,14.75
2023-05-15T10:50:28.047Z,14.61
2023-05-15T10:52:54.956Z,14.68
2023-05-15T10:55:22.090Z,14.84
2023-05-15T10:57:49.162Z,15.05
2023-05-15T11:00:21.317Z,15.19
2023-05-15T11:02:50.181Z,15.10
2023-05-15T11:05:16.698Z,15.06
2023-05-15T11:07:43.176Z,15.11
2023-05-15T11:10:27.466Z,15.16
2023-05-15T11:12:55.788Z,15.18
2023-05-15T11:15:22.192Z,15.33
2023-05-15T11:18:07.935Z,15.41
2023-05-15T11:20:38.461Z,15.41
2023-05-15T11:23:05.173Z,15.40
2023-05-15T11:25:33.851Z,15.52
2023-05-15T11:28:04.686Z,15.70
2023-05-15T11:30:58.932Z,15.70
2023-05-15T11:33:29.255Z,15.78
2023-05-15T11:35:59.916Z,15.97
2023-05-15T11:38:26.735Z,16.04
2023-05-15T11:40:57.755Z,16.10
2023-05-15T11:43:36.964Z,16.17
2023-05-15T11:46:06.820Z,16.02
2023-05-15T11:48:38.748Z,15.93
2023-05-15T11:51:10.834Z,15.85
2023-05-15T11:53:39.600Z,15.91
2023-05-15T11:56:06.455Z,15.93
2023-05-15T11:58:32.929Z,15.84
2023-05-15T12:00:59.175Z,15.83
2023-05-15T12:03:27.327Z,15.76
2023-05-15T12:08:23.976Z,15.97
2023-05-15T12:10:50.216Z,16.27
2023-05-15T12:13:18.021Z,16.47
2023-05-15T12:15:45.907Z,16.45
2023-05-15T12:18:13.093Z,16.47
2023-05-15T12:20:44.274Z,16.42
2023-05-15T12:23:13.977Z,16.31
2023-05-15T12:25:41.274Z,16.25
2023-05-15T12:28:07.991Z,16.24
2023-05-15T12:30:35.125Z,16.31
2023-05-15T12:33:03.435Z,16.54
2023-05-15T12:35:32.053Z,16.53
2023-05-15T12:37:58.508Z,16.51
2023-05-15T12:40:24.980Z,16.48
2023-05-15T12:42:53.804Z,16.58
2023-05-15T12:45:21.730Z,16.68
2023-05-15T12:47:50.342Z,16.65
2023-05-15T12:50:20.220Z,16.75
2023-05-15T12:52:54.650Z,16.78
2023-05-15T12:55:31.333Z,16.99
2023-05-15T12:58:03.829Z,16.97
2023-05-15T13:00:31.404Z,16.97
2023-05-15T13:02:58.281Z,16.99
2023-05-15T13:05:31.467Z,17.00
2023-05-15T13:08:02.551Z,17.07
2023-05-15T13:10:32.602Z,17.06
2023-05-15T13:13:00.147Z,17.18
2023-05-15T13:15:36.966Z,17.10
2023-05-15T13:18:10.097Z,17.30
2023-05-15T13:20:44.627Z,17.34
2023-05-15T13:23:14.267Z,17.38
2023-05-15T13:25:40.920Z,17.43
2023-05-15T13:28:09.916Z,17.47
2023-05-15T13:30:38.601Z,17.52
2023-05-15T13:33:05.159Z,17.50
2023-05-15T13:35:31.492Z,17.45
2023-05-15T13:37:58.652Z,17.61
2023-05-15T13:40:25.534Z,17.62
2023-05-15T13:42:52.637Z,17.63
2023-05-15T13:45:18.975Z,17.81
2023-05-15T13:47:45.784Z,17.85
2023-05-15T13:50:14.117Z,17.91
2023-05-15T13:52:42.484Z,17.74
2023-05-15T13:55:09.540Z,17.63
2023-05-15T13:57:37.408Z,17.54
2023-05-15T14:00:10.046Z,17.69
2023-05-15T14:02:37.125Z,17.87
2023-05-15T14:05:04.598Z,18.16
2023-05-15T14:07:31.333Z,18.24
2023-05-15T14:09:57.962Z,17.87
2023-05-15T14:12:25.042Z,18.10
2023-05-15T14:14:51.822Z,18.23
2023-05-15T14:17:18.301Z,18.29
2023-05-15T14:19:44.760Z,18.23
2023-05-15T14:22:11.590Z,18.20
2023-05-15T14:24:37.810Z,18.32
2023-05-15T14:27:05.134Z,18.32
2023-05-15T14:29:31.257Z,18.20
2023-05-15T14:31:57.681Z,18.34
2023-05-15T14:34:24.089Z,18.30
2023-05-15T14:36:50.899Z,18.12
2023-05-15T14:39:17.894Z,17.76
2023-05-15T14:41:45.201Z,17.52
2023-05-15T14:44:11.380Z,17.54
2023-05-15T14:46:38.277Z,17.38
2023-05-15T14:49:04.789Z,17.19
2023-05-15T14:51:31.531Z,17.06
2023-05-15T14:53:58.002Z,17.03
2023-05-15T14:56:25.129Z,17.03
2023-05-15T14:58:52.948Z,16.98
2023-05-15T15:01:20.027Z,16.87
2023-05-15T15:03:46.362Z,16.79
2023-05-15T15:06:12.833Z,16.76
2023-05-15T15:08:38.991Z,16.55
2023-05-15T15:11:06.406Z,16.56
2023-05-15T15:13:32.569Z,16.63
2023-05-15T15:15:59.048Z,16.51
2023-05-15T15:18:25.637Z,16.51
2023-05-15T15:20:52.269Z,16.51
2023-05-15T15:23:18.522Z,16.50
2023-05-15T15:25:45.242Z,16.41
2023-05-15T15:28:12.438Z,16.48
2023-05-15T15:30:38.882Z,16.44
2023-05-15T15:33:04.994Z,16.34
2023-05-15T15:35:31.813Z,16.31
2023-05-15T15:37:58.173Z,16.27
2023-05-15T15:40:25.639Z,16.06
2023-05-15T15:42:53.452Z,15.89
2023-05-15T15:45:20.136Z,15.65
2023-05-15T15:47:46.446Z,15.62
2023-05-15T15:50:12.943Z,15.75
2023-05-15T15:52:39.056Z,15.88
2023-05-15T15:55:06.138Z,15.83
2023-05-15T15:57:32.752Z,15.92
2023-05-15T15:59:59.295Z,15.87
2023-05-15T16:02:25.998Z,15.97
2023-05-15T16:04:52.591Z,15.94
2023-05-15T16:07:19.174Z,16.06
2023-05-15T16:09:47.853Z,15.96
2023-05-15T16:12:20.462Z,16.20
2023-05-15T16:14:47.003Z,16.23
2023-05-15T16:17:13.504Z,16.24
2023-05-15T16:19:40.674Z,16.28
2023-05-15T16:22:07.051Z,16.22
2023-05-15T16:24:36.552Z,16.24
2023-05-15T16:27:03.413Z,16.00
2023-05-15T16:29:30.547Z,16.07
2023-05-15T16:31:57.414Z,16.10
2023-05-15T16:34:24.770Z,16.16
2023-05-15T16:36:51.270Z,16.16
2023-05-15T16:39:19.460Z,16.19
2023-05-15T16:41:45.752Z,16.25
2023-05-15T16:44:12.528Z,16.37
2023-05-15T16:46:42.110Z,16.35
2023-05-15T16:49:08.748Z,16.23
2023-05-15T16:51:35.171Z,16.03
2023-05-15T16:54:01.940Z,16.17
2023-05-15T16:56:28.438Z,16.27
2023-05-15T16:58:55.263Z,16.22
2023-05-15T17:01:21.698Z,16.28
2023-05-15T17:03:48.559Z,16.23
2023-05-15T17:06:15.983Z,16.25
2023-05-15T17:08:44.787Z,16.15
2023-05-15T17:11:12.822Z,16.14
2023-05-15T17:13:39.639Z,16.13
2023-05-15T17:16:06.567Z,16.00
2023-05-15T17:18:33.100Z,15.95
2023-05-15T17:20:59.720Z,15.93
2023-05-15T17:23:26.188Z,15.90
2023-05-15T17:25:52.732Z,15.90
2023-05-15T17:28:19.486Z,15.96
2023-05-15T17:30:45.836Z,15.96
2023-05-15T17:33:12.523Z,16.00
2023-05-15T17:35:39.022Z,16.04
2023-05-15T17:38:05.605Z,16.07
2023-05-15T17:40:31.884Z,16.07
2023-05-15T17:42:58.548Z,15.80
2023-05-15T17:45:26.241Z,15.78
2023-05-15T17:47:53.472Z,15.84
2023-05-15T17:50:19.865Z,15.82
2023-05-15T17:52:46.620Z,15.84
2023-05-15T17:55:13.118Z,15.82
2023-05-15T17:57:39.725Z,15.76
2023-05-15T18:00:06.657Z,15.76
2023-05-15T18:02:38.906Z,15.77
2023-05-15T18:05:05.676Z,15.65
2023-05-15T18:07:32.201Z,15.59
2023-05-15T18:09:58.407Z,15.55
2023-05-15T18:12:25.434Z,15.59
2023-05-15T18:14:51.631Z,15.59
2023-05-15T18:17:19.220Z,15.54
2023-05-15T18:19:45.405Z,15.43
2023-05-15T18:22:11.979Z,15.36
2023-05-15T18:24:38.263Z,15.34
2023-05-15T18:27:05.108Z,15.35
2023-05-15T18:29:32.941Z,15.30
2023-05-15T18:31:59.700Z,15.26
2023-05-15T18:34:26.034Z,15.29
2023-05-15T18:36:52.516Z,15.25
2023-05-15T18:39:18.853Z,15.15
2023-05-15T18:41:45.402Z,15.16
2023-05-15T18:44:11.761Z,15.09
2023-05-15T18:46:38.516Z,15.16
2023-05-15T18:49:04.944Z,15.11
2023-05-15T18:51:32.432Z,15.15
2023-05-15T18:53:58.965Z,15.03
2023-05-15T18:56:25.464Z,15.05
2023-05-15T18:58:53.685Z,15.05
2023-05-15T19:01:22.163Z,15.05
2023-05-15T19:03:48.926Z,15.03
2023-05-15T19:06:19.146Z,14.98
2023-05-15T19:08:47.174Z,14.93
2023-05-15T19:11:15.055Z,14.97
2023-05-15T19:13:41.853Z,14.81
2023-05-15T19:16:09.740Z,14.82
2023-05-15T19:18:36.647Z,14.68
2023-05-15T19:21:04.401Z,14.63
2023-05-15T19:23:31.230Z,14.55
2023-05-15T19:25:58.022Z,14.52
2023-05-15T19:28:25.853Z,14.56
2023-05-15T19:30:53.143Z,14.56
2023-05-15T19:33:20.400Z,14.48
2023-05-15T19:35:48.312Z,14.47
2023-05-15T19:38:15.389Z,14.51
2023-05-15T19:40:44.449Z,14.51
2023-05-15T19:43:11.061Z,14.38
2023-05-15T19:45:41.081Z,14.42
2023-05-15T19:48:08.323Z,14.39
2023-05-15T19:50:39.547Z,14.36
2023-05-15T19:53:06.362Z,14.27
2023-05-15T19:55:33.316Z,14.28
2023-05-15T19:57:59.918Z,14.20
2023-05-15T20:00:26.883Z,14.19
2023-05-15T20:02:53.449Z,14.13
2023-05-15T20:05:20.504Z,14.06
2023-05-15T20:07:47.257Z,14.11
2023-05-15T20:10:17.649Z,14.08
2023-05-15T20:12:45.095Z,14.07
2023-05-15T20:15:13.402Z,14.00
2023-05-15T20:17:41.024Z,13.97
2023-05-15T20:20:11.571Z,13.96
2023-05-15T20:22:40.552Z,14.03
2023-05-15T20:25:07.959Z,13.98
2023-05-15T20:27:34.605Z,14.01
2023-05-15T20:30:03.189Z,13.94
2023-05-15T20:32:31.319Z,13.97
2023-05-15T20:34:59.736Z,14.02
2023-05-15T20:37:29.768Z,13.98
2023-05-15T20:39:57.020Z,14.04
2023-05-15T20:42:24.405Z,14.08
2023-05-15T20:44:50.990Z,14.11
2023-05-15T20:47:17.805Z,14.12
2023-05-15T20:49:44.633Z,14.16
2023-05-15T20:52:11.258Z,14.10
2023-05-15T20:54:37.773Z,14.06
2023-05-15T20:57:04.872Z,14.12
2023-05-15T20:59:31.385Z,14.01
2023-05-15T21:01:57.449Z,13.94
2023-05-15T21:04:23.878Z,13.92
2023-05-15T21:06:50.607Z,13.90
2023-05-15T21:09:17.331Z,13.87
2023-05-15T21:11:45.572Z,13.82
2023-05-15T21:14:12.326Z,13.82
2023-05-15T21:16:38.804Z,13.85
2023-05-15T21:19:05.503Z,13.90
2023-05-15T21:21:32.020Z,13.85
2023-05-15T21:24:00.287Z,13.95
2023-05-15T21:26:27.497Z,14.00
2023-05-15T21:28:55.954Z,14.03
2023-05-15T21:31:22.277Z,14.05
2023-05-15T21:33:48.818Z,14.06
2023-05-15T21:36:14.916Z,14.13
2023-05-15T21:38:41.352Z,14.11
2023-05-15T21:41:07.487Z,14.12
2023-05-15T21:43:34.178Z,14.10
2023-05-15T21:46:00.372Z,14.16
2023-05-15T21:48:27.228Z,14.16
2023-05-15T21:50:57.243Z,14.15
2023-05-15T21:53:24.863Z,14.17
2023-05-15T21:55:58.145Z,14.20
2023-05-15T21:58:24.937Z,14.19
2023-05-15T22:00:51.171Z,14.17
2023-05-15T22:03:21.205Z,14.21
2023-05-15T22:05:49.383Z,14.11
2023-05-15T22:08:16.282Z,14.10
2023-05-15T22:10:42.453Z,14.11
2023-05-15T22:13:09.223Z,14.12
2023-05-15T22:15:36.318Z,14.06
2023-05-15T22:18:04.759Z,14.03
2023-05-15T22:20:31.978Z,14.04
2023-05-15T22:22:59.024Z,14.08
2023-05-15T22:25:25.325Z,14.11
2023-05-15T22:27:52.166Z,14.11
2023-05-15T22:30:18.746Z,14.11
2023-05-15T22:32:45.310Z,14.18
2023-05-15T22:35:12.454Z,14.19
2023-05-15T22:37:40.083Z,14.17
2023-05-15T22:40:10.315Z,14.21
2023-05-15T22:42:37.165Z,14.14
2023-05-15T22:45:05.163Z,14.13
2023-05-15T22:47:32.340Z,14.12
2023-05-15T22:49:58.412Z,14.14
2023-05-15T22:52:24.950Z,14.14
2023-05-15T22:54:51.428Z,14.08
2023-05-15T22:57:18.055Z,14.18
2023-05-15T22:59:44.632Z,14.17
2023-05-15T23:02:10.996Z,14.22
2023-05-15T23:04:37.309Z,14.23
2023-05-15T23:07:04.381Z,14.16
2023-05-15T23:09:30.489Z,14.24
2023-05-15T23:11:56.808Z,14.26
2023-05-15T23:14:23.428Z,14.33
2023-05-15T23:16:49.913Z,14.30
2023-05-15T23:19:16.298Z,14.28
2023-05-15T23:21:42.932Z,14.23
2023-05-15T23:24:09.439Z,14.22
2023-05-15T23:26:35.829Z,14.15
2023-05-15T23:29:01.921Z,14.10
2023-05-15T23:31:28.930Z,13.97
2023-05-15T23:33:55.382Z,13.95
2023-05-15T23:36:22.007Z,13.89
2023-05-15T23:38:48.107Z,13.79
2023-05-15T23:41:14.582Z,13.70
2023-05-15T23:43:40.628Z,13.60
2023-05-15T23:46:07.072Z,13.57
2023-05-15T23:48:33.199Z,13.54
2023-05-15T23:50:59.647Z,13.46
2023-05-15T23:53:25.738Z,13.38
2023-05-15T23:55:52.345Z,13.32
2023-05-15T23:58:18.498Z,13.30
